Time;durP1;ratioP1;P1;durP2;ratioP2;P2;SDS_P1;SDS_P2;PMS_P1;PMS_P2;Temp;Humidity;BMP_temperature;BMP_pressure;BME280_temperature;BME280_humidity;BME280_pressure;Samples;Min_cycle;Max_cycle;Signal;HPM_P1;HPM_P2
2023/08/15 11:04:01;;;;;;;3.60;2.60;;;;;;;26.81;58.51;96918.44;105218;1308;558280;-91
2023/08/15 11:06:41;;;;;;;2.90;2.40;;;;;;;26.78;60.90;96917.28;107604;1288;22569;-92
2023/08/15 11:09:10;;;;;;;4.60;2.30;;;;;;;26.71;59.26;96917.48;89325;1279;15004811;-93
2023/08/15 11:12:28;;;;;;;4.10;2.90;;;;;;;26.71;61.04;96918.91;8649;1308;151919717;-92
2023/08/15 11:14:55;;;;;;;3.70;2.50;;;;;;;26.65;58.07;96921.05;107936;1293;269452;-92
2023/08/15 11:17:47;;;;;;;4.90;2.60;;;;;;;26.69;57.53;96924.36;108316;1293;26305;-91
2023/08/15 11:21:09;;;;;;;3.60;2.80;;;;;;;26.86;57.92;96917.89;107144;1298;544856;-90
2023/08/15 11:23:36;;;;;;;4.10;2.90;;;;;;;26.86;57.55;96915.71;109568;1275;23515;-91
2023/08/15 11:26:08;;;;;;;4.20;2.40;;;;;;;26.86;56.24;96912.20;109681;1276;137383;-92
2023/08/15 11:28:35;;;;;;;4.20;2.50;;;;;;;26.87;58.84;96912.67;109616;1267;137235;-92
2023/08/15 11:31:21;;;;;;;4.30;2.70;;;;;;;26.87;57.84;96912.24;109670;1278;22400;-92
2023/08/15 11:33:51;;;;;;;3.50;2.70;;;;;;;26.88;56.77;96913.84;109291;1272;363575;-92
2023/08/15 11:36:17;;;;;;;3.20;2.80;;;;;;;26.91;54.16;96910.73;109582;1273;137112;-90
2023/08/15 11:38:44;;;;;;;3.20;2.60;;;;;;;27.01;56.34;96906.39;109946;1264;22328;-92
2023/08/15 11:41:11;;;;;;;3.50;2.30;;;;;;;27.06;56.45;96906.22;109680;1273;136938;-92
2023/08/15 11:46:16;;;;;;;4.90;3.30;;;;;;;27.12;56.17;96902.17;108473;1275;22573;-93
2023/08/15 11:48:46;;;;;;;5.10;3.90;;;;;;;27.16;55.88;96892.52;107970;1276;136935;-92
2023/08/15 11:51:31;;;;;;;2.90;2.50;;;;;;;27.24;56.27;96896.04;108003;1278;22581;-92
2023/08/15 11:53:59;;;;;;;3.90;3.00;;;;;;;27.28;54.77;96898.02;107641;1280;137421;-91
2023/08/15 11:56:25;;;;;;;4.60;3.10;;;;;;;27.37;52.41;96897.61;107860;1278;22565;-90
2023/08/15 11:58:51;;;;;;;4.10;3.00;;;;;;;27.47;50.88;96896.16;107720;1279;137243;-91
2023/08/15 12:01:17;;;;;;;3.00;2.70;;;;;;;27.57;49.52;96893.11;107851;1280;22630;-91
2023/08/15 12:03:44;;;;;;;3.60;2.30;;;;;;;27.66;50.08;96889.65;108005;1279;22820;-90
2023/08/15 12:06:12;;;;;;;4.40;2.50;;;;;;;27.72;49.86;96883.15;107894;1275;137077;-90
2023/08/15 12:08:39;;;;;;;8.00;4.70;;;;;;;27.74;49.74;96882.96;107993;1275;22575;-91
2023/08/15 12:11:08;;;;;;;4.90;3.10;;;;;;;27.81;49.53;96878.75;107970;1260;137117;-91
2023/08/15 12:13:37;;;;;;;3.70;3.10;;;;;;;27.89;48.79;96876.02;108182;1273;22573;-91
2023/08/15 12:16:03;;;;;;;4.10;3.20;;;;;;;27.97;49.25;96871.03;108525;1273;23883;-90
2023/08/15 12:18:30;;;;;;;3.20;2.90;;;;;;;28.03;49.95;96871.77;107887;1275;136837;-91
2023/08/15 12:20:56;;;;;;;4.20;3.10;;;;;;;28.10;48.35;96868.45;107965;1272;25860;-91
2023/08/15 12:23:22;;;;;;;4.70;4.20;;;;;;;28.16;47.77;96870.91;107847;1272;136907;-91
2023/08/15 12:25:48;;;;;;;4.40;2.70;;;;;;;28.23;51.72;96870.67;107807;1273;22530;-91
2023/08/15 12:28:14;;;;;;;4.00;2.50;;;;;;;28.27;51.20;96870.34;108194;1273;25415;-90
2023/08/15 12:30:40;;;;;;;3.60;2.70;;;;;;;28.30;50.22;96870.10;107817;1275;136980;-91
2023/08/15 12:33:05;;;;;;;3.10;2.50;;;;;;;28.31;49.54;96865.77;108489;1273;22588;-91
2023/08/15 12:35:32;;;;;;;4.50;4.00;;;;;;;28.34;51.31;96862.86;108349;1272;137217;-91
2023/08/15 12:37:59;;;;;;;4.10;2.90;;;;;;;28.34;49.20;96865.73;108045;1275;22692;-91
2023/08/15 12:40:26;;;;;;;5.70;2.70;;;;;;;28.37;47.62;96863.23;107906;1272;137164;-91
2023/08/15 12:42:52;;;;;;;2.90;2.50;;;;;;;28.44;47.56;96859.90;107927;1276;22535;-90
2023/08/15 12:45:18;;;;;;;3.70;2.70;;;;;;;28.49;46.87;96856.75;107913;1275;24203;-91
2023/08/15 12:47:44;;;;;;;2.80;2.60;;;;;;;28.54;46.45;96853.21;108058;1273;137351;-92
2023/08/15 12:50:10;;;;;;;3.30;2.70;;;;;;;28.61;46.60;96858.84;107932;1273;25490;-91
2023/08/15 12:52:36;;;;;;;4.60;3.30;;;;;;;28.67;46.90;96853.98;107835;1272;138675;-91
2023/08/15 12:55:02;;;;;;;3.60;3.10;;;;;;;28.72;47.71;96855.95;107926;1272;22502;-91
2023/08/15 12:57:29;;;;;;;5.20;3.00;;;;;;;28.78;47.33;96852.02;107839;1275;25284;-91
2023/08/15 12:59:55;;;;;;;4.30;4.00;;;;;;;28.82;46.81;96852.19;107604;1273;137133;-90
2023/08/15 13:02:21;;;;;;;6.00;4.10;;;;;;;28.85;47.93;96850.27;107721;1273;22685;-91
2023/08/15 13:04:47;;;;;;;3.20;2.90;;;;;;;28.88;46.82;96850.73;107797;1272;136993;-91
2023/08/15 13:07:13;;;;;;;4.10;3.50;;;;;;;28.92;47.60;96850.42;107971;1273;24247;-91
2023/08/15 13:09:39;;;;;;;3.30;3.00;;;;;;;28.93;48.04;96845.26;107890;1271;24746;-92
2023/08/15 13:12:05;;;;;;;5.40;3.70;;;;;;;28.95;47.63;96844.98;107821;1273;137077;-90
2023/08/15 13:14:31;;;;;;;3.90;2.90;;;;;;;29.00;46.97;96847.49;107913;1264;22564;-92
2023/08/15 13:17:00;;;;;;;3.20;2.90;;;;;;;29.03;47.24;96851.63;107668;1273;138150;-91
2023/08/15 13:19:30;;;;;;;4.10;3.00;;;;;;;29.04;47.24;96853.54;108061;1272;22530;-91
2023/08/15 13:21:56;;;;;;;3.10;2.80;;;;;;;29.04;48.33;96842.93;107899;1272;24041;-90
2023/08/15 13:24:22;;;;;;;4.80;2.60;;;;;;;29.02;51.82;96845.39;107678;1273;137908;-91
2023/08/15 13:26:48;;;;;;;4.50;2.70;;;;;;;28.94;51.10;96841.30;107856;1273;24148;-91
2023/08/15 13:29:14;;;;;;;3.30;2.90;;;;;;;28.92;52.74;96837.75;108042;1272;137404;-91
2023/08/15 13:31:41;;;;;;;3.20;2.90;;;;;;;28.86;53.88;96838.98;107980;1271;22488;-92
2023/08/15 13:34:07;;;;;;;3.00;2.70;;;;;;;28.79;53.96;96831.34;107977;1273;22582;-91
2023/08/15 13:36:33;;;;;;;4.10;2.60;;;;;;;28.78;51.14;96836.66;107741;1272;137289;-91
2023/08/15 13:38:59;;;;;;;3.10;2.80;;;;;;;28.80;51.13;96833.48;108195;1272;22630;-91
2023/08/15 13:41:25;;;;;;;3.50;3.20;;;;;;;28.84;48.86;96831.73;107756;1272;137332;-91
2023/08/15 13:43:51;;;;;;;4.10;2.90;;;;;;;28.88;51.00;96833.41;108090;1272;23300;-90
2023/08/15 13:46:17;;;;;;;4.10;3.00;;;;;;;28.90;53.02;96831.89;108319;1272;23890;-92
2023/08/15 13:48:51;;;;;;;4.20;3.20;;;;;;;28.83;49.93;96828.64;107921;1266;26533;-89
2023/08/15 13:51:20;;;;;;;5.70;3.10;;;;;;;28.80;53.50;96828.35;108009;1263;23164;-92
2023/08/15 13:53:54;;;;;;;3.00;2.70;;;;;;;28.78;54.98;96831.69;107719;1273;137496;-91
2023/08/15 13:56:31;;;;;;;3.30;3.00;;;;;;;28.66;56.87;96824.52;107769;1273;22646;-91
2023/08/15 13:58:57;;;;;;;6.10;3.80;;;;;;;28.57;55.86;96825.26;107699;1273;137484;-91
2023/08/15 14:01:23;;;;;;;3.50;3.20;;;;;;;28.55;54.65;96822.77;107882;1272;22545;-90
2023/08/15 14:03:50;;;;;;;3.20;2.80;;;;;;;28.55;56.20;96823.20;107891;1273;22651;-92
2023/08/15 14:06:16;;;;;;;3.10;2.60;;;;;;;28.51;55.75;96822.41;107874;1274;137752;-91
2023/08/15 14:08:42;;;;;;;3.60;3.30;;;;;;;28.45;56.34;96826.69;108126;1272;23893;-92
2023/08/15 14:11:08;;;;;;;3.90;3.40;;;;;;;28.37;56.26;96827.06;107782;1272;139679;-92
2023/08/15 14:13:34;;;;;;;14.00;12.50;;;;;;;28.29;56.23;96819.86;108029;1272;22499;-92
2023/08/15 14:16:00;;;;;;;9.10;7.40;;;;;;;28.28;54.25;96819.50;108044;1272;22496;-91
2023/08/15 14:18:26;;;;;;;4.10;3.70;;;;;;;28.31;55.17;96818.57;107593;1275;138398;-92
2023/08/15 14:20:52;;;;;;;16.60;14.80;;;;;;;28.29;55.03;96819.55;107873;1272;22613;-91
2023/08/15 14:23:19;;;;;;;4.50;4.10;;;;;;;28.32;54.29;96814.24;107908;1273;137578;-91
2023/08/15 14:25:45;;;;;;;3.60;3.30;;;;;;;28.34;55.07;96818.60;107988;1272;24203;-92
2023/08/15 14:28:11;;;;;;;3.70;3.30;;;;;;;28.34;56.54;96821.48;108073;1273;25252;-90
2023/08/15 14:30:39;;;;;;;5.20;3.50;;;;;;;28.30;58.41;96820.34;107816;1272;137133;-92
2023/08/15 14:33:09;;;;;;;4.60;3.60;;;;;;;28.22;60.66;96814.64;108168;1272;22615;-91
2023/08/15 14:35:35;;;;;;;3.50;3.20;;;;;;;28.18;59.27;96814.30;108024;1257;137236;-92
2023/08/15 14:38:01;;;;;;;4.10;3.20;;;;;;;28.20;57.73;96814.56;107933;1275;22550;-92
2023/08/15 14:40:27;;;;;;;4.10;3.70;;;;;;;28.22;54.14;96812.22;108154;1272;25404;-92
2023/08/15 14:42:54;;;;;;;3.90;3.50;;;;;;;28.30;57.84;96812.28;108076;1272;137741;-92
2023/08/15 14:45:20;;;;;;;3.90;3.40;;;;;;;28.32;58.88;96808.52;107710;1274;22533;-93
2023/08/15 14:47:46;;;;;;;4.00;3.20;;;;;;;28.28;59.03;96806.13;108016;1272;139746;-92
2023/08/15 14:50:13;;;;;;;4.90;3.20;;;;;;;28.22;58.68;96807.52;107822;1278;24926;-91
2023/08/15 14:52:42;;;;;;;3.90;3.40;;;;;;;28.14;58.56;96808.40;108027;1272;137440;-92
2023/08/15 14:55:10;;;;;;;19.50;14.80;;;;;;;28.12;56.78;96812.38;107885;1272;23916;-91
2023/08/15 14:57:36;;;;;;;13.90;11.70;;;;;;;28.16;57.11;96814.17;107821;1277;22663;-91
2023/08/15 15:00:04;;;;;;;4.60;4.20;;;;;;;28.21;57.62;96821.70;107870;1273;137891;-91
2023/08/15 15:02:33;;;;;;;4.10;3.50;;;;;;;28.18;59.66;96819.60;108015;1277;22586;-90
2023/08/15 15:05:00;;;;;;;6.30;3.90;;;;;;;28.10;60.07;96822.02;107892;1264;138194;-91
2023/08/15 15:07:26;;;;;;;4.80;3.70;;;;;;;28.00;59.56;96820.52;108114;1272;25281;-91
2023/08/15 15:10:08;;;;;;;4.30;3.10;;;;;;;27.96;60.81;96815.75;108558;1272;22781;-91
2023/08/15 15:12:41;;;;;;;3.90;3.50;;;;;;;27.94;62.32;96815.55;108372;1272;137252;-91
2023/08/15 15:15:28;;;;;;;4.30;3.90;;;;;;;27.89;62.10;96814.59;108002;1265;23393;-90
2023/08/15 15:17:55;;;;;;;4.00;3.60;;;;;;;27.86;61.70;96816.02;107940;1275;137674;-92
2023/08/15 15:20:21;;;;;;;3.90;3.50;;;;;;;27.82;62.61;96813.86;107953;1273;22692;-91
2023/08/15 15:22:47;;;;;;;4.90;3.50;;;;;;;27.77;61.98;96811.92;107706;1272;137308;-91
2023/08/15 15:25:13;;;;;;;4.70;4.20;;;;;;;27.76;62.37;96805.26;107915;1272;22480;-91
2023/08/15 15:27:39;;;;;;;3.30;3.00;;;;;;;27.74;62.98;96804.91;107957;1272;22612;-92
2023/08/15 15:30:07;;;;;;;5.60;3.90;;;;;;;27.71;62.50;96804.83;108032;1276;137244;-92
2023/08/15 15:32:34;;;;;;;4.20;3.80;;;;;;;27.67;62.34;96804.73;108232;1273;22556;-91
2023/08/15 15:35:00;;;;;;;3.80;3.50;;;;;;;27.64;62.74;96801.08;108245;1276;137308;-91
2023/08/15 15:37:27;;;;;;;4.40;3.80;;;;;;;27.60;62.64;96800.83;108438;1272;24231;-91
2023/08/15 15:39:54;;;;;;;5.00;3.60;;;;;;;27.57;63.52;96798.73;108569;1272;22560;-91
2023/08/15 15:42:21;;;;;;;3.60;3.30;;;;;;;27.50;63.30;96800.55;108423;1273;138283;-91
2023/08/15 15:44:47;;;;;;;4.20;3.80;;;;;;;27.44;64.02;96801.02;108792;1274;22586;-92
2023/08/15 15:47:15;;;;;;;4.10;3.60;;;;;;;27.39;64.31;96795.77;108379;1275;139184;-92
2023/08/15 15:49:46;;;;;;;5.00;3.60;;;;;;;27.36;65.43;96794.38;108705;1272;24200;-93
2023/08/15 15:52:16;;;;;;;5.00;4.00;;;;;;;27.29;66.22;96788.22;108647;1273;22589;-92
2023/08/15 15:54:44;;;;;;;4.30;3.90;;;;;;;27.24;65.90;96789.23;108515;1275;138028;-92
2023/08/15 15:57:13;;;;;;;4.10;3.70;;;;;;;27.18;65.99;96790.70;108567;1271;22569;-93
2023/08/15 15:59:48;;;;;;;6.60;3.80;;;;;;;27.13;66.54;96787.95;108521;1272;137486;-91
2023/08/15 16:02:23;;;;;;;5.00;4.40;;;;;;;27.09;66.94;96788.52;108742;1272;22557;-92
2023/08/15 16:05:12;;;;;;;4.40;4.00;;;;;;;27.05;67.39;96791.02;108502;1273;137899;-92
2023/08/15 16:07:38;;;;;;;5.40;4.10;;;;;;;27.02;67.81;96793.06;108444;1255;24240;-92
2023/08/15 16:10:07;;;;;;;6.10;4.10;;;;;;;26.96;68.31;96792.31;108275;1278;24276;-92
2023/08/15 16:12:33;;;;;;;4.40;3.90;;;;;;;26.92;68.31;96790.53;108438;1275;137767;-93
2023/08/15 16:15:01;;;;;;;4.50;4.00;;;;;;;26.86;68.36;96789.33;108382;1273;22652;-93
2023/08/15 16:17:47;;;;;;;5.00;3.90;;;;;;;26.81;68.15;96786.27;108491;1272;137165;-92
2023/08/15 16:20:14;;;;;;;4.00;3.70;;;;;;;26.77;68.62;96789.33;108613;1273;24228;-92
2023/08/15 16:22:41;;;;;;;4.40;3.90;;;;;;;26.74;68.94;96785.61;108757;1272;138842;-93
2023/08/15 16:25:10;;;;;;;4.60;4.10;;;;;;;26.71;68.83;96785.64;108334;1272;22592;-92
2023/08/15 16:27:38;;;;;;;5.20;4.50;;;;;;;26.66;68.76;96786.12;108428;1272;24005;-92
2023/08/15 16:30:06;;;;;;;4.80;4.40;;;;;;;26.59;68.97;96781.53;108571;1273;137826;-92
2023/08/15 16:32:33;;;;;;;5.40;4.10;;;;;;;26.56;68.92;96778.83;108753;1271;23841;-92
2023/08/15 16:35:03;;;;;;;4.20;3.90;;;;;;;26.52;69.22;96777.14;108493;1274;137555;-91
2023/08/15 16:37:29;;;;;;;4.60;4.10;;;;;;;26.49;69.34;96775.02;108577;1272;22555;-92
2023/08/15 16:39:56;;;;;;;4.10;3.80;;;;;;;26.46;69.44;96771.68;108549;1273;22545;-91
2023/08/15 16:42:23;;;;;;;4.40;4.00;;;;;;;26.42;69.23;96769.57;108638;1274;138532;-92
2023/08/15 16:44:50;;;;;;;6.60;4.50;;;;;;;26.38;69.61;96770.23;108197;1272;22499;-90
2023/08/15 16:47:17;;;;;;;4.40;4.00;;;;;;;26.34;69.76;96770.30;108341;1271;138046;-92
2023/08/15 16:49:44;;;;;;;4.80;4.20;;;;;;;26.30;69.91;96769.95;108292;1273;22911;-92
2023/08/15 17:01:54;;;;;;;5.70;4.40;;;;;;;26.09;71.01;96760.45;105848;1303;559073;-91
2023/08/15 17:04:20;;;;;;;4.60;4.00;;;;;;;26.00;71.28;96760.84;108048;1284;22494;-92
2023/08/15 17:06:48;;;;;;;4.80;4.30;;;;;;;25.95;71.69;96759.46;107436;1285;137348;-91
2023/08/15 17:09:20;;;;;;;4.30;3.90;;;;;;;25.89;71.83;96757.58;107748;1286;23463;-92
2023/08/15 17:11:47;;;;;;;7.00;3.90;;;;;;;25.83;72.11;96760.39;107717;1285;137217;-91
2023/08/15 17:14:14;;;;;;;3.90;3.60;;;;;;;25.77;72.06;96760.63;107688;1287;158679;-92
2023/08/15 17:16:43;;;;;;;4.20;3.70;;;;;;;25.70;72.01;96757.06;107965;1283;137638;-92
2023/08/15 17:19:09;;;;;;;4.60;3.80;;;;;;;25.63;72.12;96754.18;108134;1268;22559;-91
2023/08/15 17:21:46;;;;;;;4.10;3.70;;;;;;;25.56;72.05;96752.27;108109;1283;23950;-92
2023/08/15 17:33:40;;;;;;;4.00;3.60;;;;;;;25.22;72.16;96764.09;105952;1303;545668;-92
2023/08/15 17:36:09;;;;;;;5.40;3.90;;;;;;;25.12;72.34;96764.19;107857;1284;137497;-92
2023/08/15 17:38:36;;;;;;;4.30;3.90;;;;;;;25.06;72.04;96765.20;107791;1285;22813;-91
2023/08/15 17:41:04;;;;;;;13.90;5.10;;;;;;;24.97;72.28;96766.97;107826;1284;137640;-92
2023/08/15 17:43:34;;;;;;;6.00;3.50;;;;;;;24.91;72.51;96768.66;107942;1273;22516;-91
2023/08/15 17:46:21;;;;;;;5.10;3.70;;;;;;;24.84;72.66;96772.73;107835;1281;189797;-91
2023/08/15 17:48:48;;;;;;;4.20;3.80;;;;;;;24.80;72.64;96771.73;107875;1278;137296;-92
2023/08/15 17:51:19;;;;;;;5.00;4.50;;;;;;;24.76;72.86;96775.08;107983;1282;25428;-92
2023/08/15 17:53:50;;;;;;;13.50;5.20;;;;;;;24.71;72.99;96777.05;108117;1282;137325;-93
2023/08/15 17:56:18;;;;;;;9.10;4.30;;;;;;;24.65;73.14;96781.02;108222;1282;22812;-91
2023/08/15 17:58:50;;;;;;;5.50;4.70;;;;;;;24.63;73.25;96786.02;108166;1283;22585;-93
2023/08/15 18:01:24;;;;;;;5.60;4.80;;;;;;;24.58;73.26;96794.67;108039;1282;24373;-92
2023/08/15 18:03:51;;;;;;;5.10;4.30;;;;;;;24.54;73.37;96796.98;107867;1282;22543;-92
2023/08/15 18:06:18;;;;;;;5.40;4.50;;;;;;;24.49;73.11;96800.52;107932;1285;137481;-92
2023/08/15 18:08:47;;;;;;;6.00;4.70;;;;;;;24.42;73.14;96801.23;107925;1281;23322;-91
2023/08/15 18:11:14;;;;;;;4.70;4.00;;;;;;;24.36;73.05;96812.48;107944;1285;138528;-92
2023/08/15 18:13:41;;;;;;;5.50;4.60;;;;;;;24.30;73.41;96816.11;107981;1282;22560;-94
2023/08/15 18:16:07;;;;;;;5.30;4.80;;;;;;;24.24;73.59;96819.88;108469;1278;22662;-92
2023/08/15 18:18:34;;;;;;;5.20;4.40;;;;;;;24.21;74.06;96825.21;108258;1259;137792;-92
2023/08/15 18:21:01;;;;;;;4.60;4.10;;;;;;;24.17;73.95;96827.22;108487;1277;22545;-92
2023/08/15 18:23:28;;;;;;;5.20;4.60;;;;;;;24.09;74.06;96827.61;108427;1276;139221;-92
2023/08/15 18:26:15;;;;;;;5.40;4.90;;;;;;;23.99;74.32;96831.31;108317;1275;26485;-91
2023/08/15 18:28:43;;;;;;;5.20;4.30;;;;;;;23.90;74.87;96839.73;108061;1275;24216;-90
2023/08/15 18:31:10;;;;;;;5.70;4.50;;;;;;;23.82;75.01;96842.13;107920;1276;138219;-92
2023/08/15 18:33:37;;;;;;;4.90;4.40;;;;;;;23.75;75.27;96843.98;108060;1272;23210;-91
2023/08/15 18:36:05;;;;;;;5.30;4.70;;;;;;;23.67;75.25;96847.42;108041;1277;137477;-92
2023/08/15 18:38:32;;;;;;;5.80;4.30;;;;;;;23.60;75.12;96850.09;108232;1276;22555;-92
2023/08/15 18:40:59;;;;;;;5.00;4.40;;;;;;;23.55;75.08;96855.40;108002;1275;138248;-91
2023/08/15 18:43:25;;;;;;;7.40;4.40;;;;;;;23.50;74.72;96857.97;108246;1273;22545;-92
2023/08/15 18:45:52;;;;;;;4.90;4.40;;;;;;;23.46;74.37;96861.55;108202;1272;22577;-92
2023/08/15 18:48:20;;;;;;;4.70;4.20;;;;;;;23.43;74.55;96859.81;108246;1271;137455;-91
2023/08/15 18:50:46;;;;;;;5.90;4.40;;;;;;;23.36;74.84;96860.60;108133;1271;23870;-92
2023/08/15 18:53:17;;;;;;;5.30;4.80;;;;;;;23.31;74.99;96861.09;108191;1270;138719;-90
2023/08/15 18:55:46;;;;;;;4.70;4.30;;;;;;;23.25;74.89;96869.71;108173;1275;22593;-91
2023/08/15 18:58:14;;;;;;;6.40;4.40;;;;;;;23.20;75.23;96871.79;108255;1270;25869;-92
2023/08/15 19:00:41;;;;;;;6.90;4.00;;;;;;;23.15;75.62;96870.48;108107;1270;137488;-90
2023/08/15 19:03:07;;;;;;;5.10;4.40;;;;;;;23.11;75.44;96872.59;108141;1272;24756;-91
2023/08/15 19:05:34;;;;;;;5.80;4.70;;;;;;;23.05;75.72;96869.94;108024;1270;139356;-91
2023/08/15 19:08:01;;;;;;;7.60;4.50;;;;;;;23.01;75.93;96866.61;108093;1269;22576;-91
2023/08/15 19:10:27;;;;;;;5.40;4.70;;;;;;;22.97;76.54;96871.13;108189;1269;22554;-91
2023/08/15 19:12:54;;;;;;;7.10;4.60;;;;;;;22.93;76.64;96869.96;108035;1270;137785;-90
2023/08/15 19:15:21;;;;;;;6.70;4.50;;;;;;;22.89;76.59;96868.86;108173;1270;22524;-92
2023/08/15 19:17:49;;;;;;;6.00;5.40;;;;;;;22.85;76.72;96869.77;108120;1270;138030;-91
2023/08/15 19:20:20;;;;;;;4.90;4.40;;;;;;;22.82;76.48;96871.47;108077;1273;24216;-92
2023/08/15 19:22:50;;;;;;;5.90;4.80;;;;;;;22.78;76.45;96871.40;108403;1275;137633;-93
2023/08/15 19:25:17;;;;;;;6.10;4.90;;;;;;;22.75;76.32;96874.86;108099;1272;22562;-92
2023/08/15 19:27:43;;;;;;;4.90;4.40;;;;;;;22.73;76.14;96882.48;108176;1272;22485;-92
2023/08/15 19:30:11;;;;;;;5.50;4.50;;;;;;;22.71;76.22;96883.50;108092;1271;138226;-91
2023/08/15 19:32:38;;;;;;;5.10;4.40;;;;;;;22.70;76.23;96883.27;108065;1271;22658;-92
2023/08/15 19:35:06;;;;;;;5.20;4.70;;;;;;;22.69;76.44;96876.60;107982;1276;137696;-87
2023/08/15 19:37:33;;;;;;;4.80;4.30;;;;;;;22.69;76.38;96883.70;108200;1272;26595;-90
2023/08/15 19:40:00;;;;;;;5.20;4.50;;;;;;;22.68;76.43;96884.33;108089;1272;24201;-89
2023/08/15 19:42:29;;;;;;;4.90;4.40;;;;;;;22.68;76.71;96886.70;107854;1256;137967;-90
2023/08/15 19:44:56;;;;;;;5.80;4.50;;;;;;;22.68;76.89;96890.14;108143;1272;22527;-90
2023/08/15 19:47:23;;;;;;;5.30;4.80;;;;;;;22.66;76.89;96895.31;107933;1272;138739;-89
2023/08/15 19:49:50;;;;;;;5.20;4.70;;;;;;;22.64;77.11;96890.85;107801;1275;25300;-91
2023/08/15 19:52:17;;;;;;;5.20;4.70;;;;;;;22.62;77.08;96895.75;107987;1272;22617;-90
2023/08/15 19:54:43;;;;;;;5.90;4.90;;;;;;;22.60;77.00;96896.12;108042;1272;138137;-90
2023/08/15 19:57:10;;;;;;;5.30;4.80;;;;;;;22.58;77.10;96901.39;108387;1272;25305;-90
2023/08/15 19:59:37;;;;;;;5.10;4.40;;;;;;;22.56;77.13;96902.02;107630;1272;138605;-89
2023/08/15 20:02:04;;;;;;;5.30;4.80;;;;;;;22.55;77.17;96899.03;107858;1269;23296;-90
2023/08/15 20:04:31;;;;;;;5.50;5.00;;;;;;;22.54;77.37;96901.56;108012;1272;22758;-91
2023/08/15 20:06:57;;;;;;;8.20;5.40;;;;;;;22.53;77.32;96900.60;107939;1272;137454;-92
2023/08/15 20:09:25;;;;;;;6.90;4.50;;;;;;;22.52;77.10;96899.31;107942;1272;22698;-90
2023/08/15 20:11:52;;;;;;;5.70;5.00;;;;;;;22.52;76.87;96903.55;108006;1272;137653;-92
2023/08/15 20:14:18;;;;;;;5.40;4.60;;;;;;;22.53;76.57;96902.02;108245;1276;22530;-93
2023/08/15 20:16:45;;;;;;;5.20;4.70;;;;;;;22.54;76.35;96897.80;108350;1275;22563;-93
2023/08/15 20:19:12;;;;;;;5.70;5.00;;;;;;;22.55;76.39;96897.92;108134;1272;137287;-91
2023/08/15 20:21:39;;;;;;;6.60;6.00;;;;;;;22.56;76.37;96898.46;108249;1272;25441;-92
2023/08/15 20:24:06;;;;;;;5.60;4.90;;;;;;;22.57;76.44;96900.02;108172;1275;138983;-91
2023/08/15 20:26:33;;;;;;;5.40;4.70;;;;;;;22.57;76.17;96899.96;108290;1276;24037;-92
2023/08/15 20:28:59;;;;;;;5.80;5.30;;;;;;;22.56;76.10;96902.39;108312;1275;138677;-91
2023/08/15 20:31:26;;;;;;;7.20;5.70;;;;;;;22.56;75.96;96897.55;108558;1272;26533;-92
2023/08/15 20:33:55;;;;;;;5.60;5.10;;;;;;;22.55;76.11;96900.57;108630;1275;24187;-91
2023/08/15 20:36:30;;;;;;;6.10;5.50;;;;;;;22.55;75.90;96896.23;108655;1273;139510;-90
2023/08/15 20:38:56;;;;;;;5.70;5.20;;;;;;;22.56;75.95;96897.35;108239;1273;23066;-91
2023/08/15 20:41:23;;;;;;;5.70;5.20;;;;;;;22.58;76.11;96897.32;108074;1272;138447;-92
2023/08/15 20:43:50;;;;;;;6.70;5.40;;;;;;;22.60;76.34;96898.61;108099;1275;22542;-92
2023/08/15 20:46:16;;;;;;;6.20;5.30;;;;;;;22.63;75.87;96899.20;107766;1275;24182;-90
2023/08/15 20:48:43;;;;;;;6.10;5.50;;;;;;;22.66;76.01;96902.20;108195;1272;137679;-92
2023/08/15 20:51:12;;;;;;;5.50;5.00;;;;;;;22.67;75.77;96900.83;108329;1276;23004;-92
2023/08/15 20:53:38;;;;;;;6.50;5.40;;;;;;;22.67;75.49;96893.79;108405;1275;137804;-93
2023/08/15 20:56:05;;;;;;;5.30;4.80;;;;;;;22.69;75.55;96898.80;108490;1272;23375;-91
2023/08/15 20:58:32;;;;;;;7.10;5.30;;;;;;;22.69;75.64;96894.30;108680;1272;22552;-93
2023/08/15 21:01:03;;;;;;;6.60;5.10;;;;;;;22.68;75.53;96890.79;108285;1276;138560;-92
2023/08/15 21:03:30;;;;;;;5.10;4.60;;;;;;;22.67;75.61;96891.95;108821;1262;22724;-93
2023/08/15 21:05:57;;;;;;;5.50;5.00;;;;;;;22.67;75.55;96891.35;108639;1272;138959;-94
2023/08/15 21:08:37;;;;;;;5.20;4.70;;;;;;;22.67;75.48;96888.81;108910;1273;22554;-92
2023/08/15 21:11:07;;;;;;;5.60;5.10;;;;;;;22.66;75.72;96886.84;108513;1272;139124;-94
2023/08/15 21:13:35;;;;;;;5.70;5.20;;;;;;;22.65;75.43;96883.86;108721;1272;23930;-92
2023/08/15 21:16:02;;;;;;;5.20;4.70;;;;;;;22.63;75.42;96884.27;107949;1272;25743;-91
2023/08/15 21:18:29;;;;;;;6.70;4.70;;;;;;;22.62;75.42;96883.45;107904;1272;138251;-92
2023/08/15 21:20:55;;;;;;;6.50;5.00;;;;;;;22.59;75.45;96880.64;108185;1277;22644;-93
2023/08/15 21:23:22;;;;;;;5.30;4.80;;;;;;;22.56;75.13;96880.30;108113;1273;137870;-93
2023/08/15 21:25:49;;;;;;;4.80;4.40;;;;;;;22.55;75.16;96879.07;108240;1272;22587;-92
2023/08/15 21:28:16;;;;;;;5.50;5.00;;;;;;;22.54;75.02;96876.61;108057;1272;22851;-91
2023/08/15 21:30:51;;;;;;;5.00;4.50;;;;;;;22.53;75.15;96879.52;108389;1272;137840;-93
2023/08/15 21:33:20;;;;;;;5.20;4.50;;;;;;;22.50;75.13;96881.66;108464;1271;23396;-92
2023/08/15 21:35:49;;;;;;;5.60;4.60;;;;;;;22.47;75.16;96880.84;108633;1272;138124;-92
2023/08/15 21:38:36;;;;;;;5.40;4.40;;;;;;;22.46;75.25;96878.64;108945;1273;23000;-93
2023/08/15 21:41:02;;;;;;;9.80;5.60;;;;;;;22.44;75.24;96879.91;108695;1271;138315;-91
2023/08/15 21:43:35;;;;;;;5.00;4.50;;;;;;;22.41;75.40;96874.70;108665;1272;25256;-92
2023/08/15 21:46:02;;;;;;;4.70;4.20;;;;;;;22.40;75.28;96874.63;108232;1275;22536;-92
2023/08/15 21:48:29;;;;;;;5.60;4.40;;;;;;;22.38;75.37;96878.58;107864;1272;139156;-91
2023/08/15 21:50:55;;;;;;;4.90;4.50;;;;;;;22.36;75.59;96878.93;107687;1273;22689;-91
2023/08/15 21:53:22;;;;;;;5.80;4.40;;;;;;;22.34;75.38;96878.80;107928;1271;138506;-92
2023/08/15 21:55:48;;;;;;;6.30;4.30;;;;;;;22.32;75.47;96879.09;107932;1272;22593;-92
2023/08/15 21:58:15;;;;;;;7.30;5.10;;;;;;;22.30;75.56;96879.87;107819;1275;22600;-91
2023/08/15 22:00:42;;;;;;;5.10;4.00;;;;;;;22.30;75.77;96882.13;107925;1271;138112;-91
2023/08/15 22:03:09;;;;;;;4.60;6.30;;;;;;;22.28;75.72;96884.94;107807;1272;23358;-91
2023/08/15 22:05:36;;;;;;;4.70;4.30;;;;;;;22.27;75.77;96884.98;107811;1272;138131;-91
2023/08/15 22:08:03;;;;;;;4.80;4.20;;;;;;;22.25;75.74;96886.91;108000;1272;22643;-92
2023/08/15 22:10:29;;;;;;;5.10;4.20;;;;;;;22.24;75.81;96888.23;107825;1271;25379;-91
2023/08/15 22:12:56;;;;;;;6.00;4.40;;;;;;;22.21;75.79;96888.24;107670;1277;137812;-91
2023/08/15 22:15:24;;;;;;;6.90;5.00;;;;;;;22.21;76.01;96893.80;107838;1273;22530;-91
2023/08/15 22:17:51;;;;;;;5.30;4.40;;;;;;;22.20;75.88;96896.44;107912;1276;137846;-91
2023/08/15 22:20:18;;;;;;;4.40;4.00;;;;;;;22.19;76.20;96899.59;107893;1265;22579;-91
2023/08/15 22:22:44;;;;;;;4.60;3.90;;;;;;;22.19;76.43;96898.27;107854;1272;22571;-90
2023/08/15 22:25:11;;;;;;;4.90;4.40;;;;;;;22.18;76.23;96904.51;107915;1272;138574;-91
2023/08/15 22:27:38;;;;;;;7.30;4.90;;;;;;;22.19;76.96;96899.42;107893;1262;22686;-91
2023/08/15 22:30:06;;;;;;;4.60;4.00;;;;;;;22.23;77.27;96899.55;107769;1273;138051;-92
2023/08/15 22:32:33;;;;;;;5.10;4.60;;;;;;;22.32;77.25;96896.98;107737;1273;24196;-91
2023/08/15 22:35:00;;;;;;;5.10;4.10;;;;;;;22.39;76.89;96896.70;107636;1272;138493;-91
2023/08/15 22:37:28;;;;;;;6.80;4.60;;;;;;;22.42;77.15;96893.82;108258;1272;22647;-94
2023/08/15 22:47:02;;;;;;;5.10;4.60;;;;;;;22.44;77.20;96894.75;109372;1277;22558;-93
2023/08/15 22:55:50;;;;;;;4.60;4.10;;;;;;;22.46;77.44;96887.96;109330;1276;24213;-93
2023/08/15 22:58:40;;;;;;;4.60;4.20;;;;;;;22.48;77.26;96894.55;109034;1276;24205;-94
2023/08/15 23:04:45;;;;;;;5.40;4.80;;;;;;;22.50;77.20;96894.21;109661;1273;22822;-94
2023/08/15 23:08:29;;;;;;;5.30;4.80;;;;;;;22.51;77.46;96887.13;109561;1275;22572;-93
2023/08/15 23:19:11;;;;;;;5.80;5.30;;;;;;;22.54;77.95;96871.21;106988;1300;561213;-93